sensor_id;sensor_type;location;lat;lon;timestamp;temperature;humidity
23251;DHT22;11794;49.730;10.088;2022-09-21T00:00:43;6.60;99.90
23251;DHT22;11794;49.730;10.088;2022-09-21T00:03:09;6.50;99.90
23251;DHT22;11794;49.730;10.088;2022-09-21T00:05:35;6.50;99.90
23251;DHT22;11794;49.730;10.088;2022-09-21T00:08:05;6.40;99.90
23251;DHT22;11794;49.730;10.088;2022-09-21T00:10:31;6.40;99.90
23251;DHT22;11794;49.730;10.088;2022-09-21T00:12:58;6.40;99.90
23251;DHT22;11794;49.730;10.088;2022-09-21T00:15:25;6.40;99.90
23251;DHT22;11794;49.730;10.088;2022-09-21T00:17:54;6.40;99.90
23251;DHT22;11794;49.730;10.088;2022-09-21T00:20:21;6.30;99.90
23251;DHT22;11794;49.730;10.088;2022-09-21T00:22:47;6.20;99.90
23251;DHT22;11794;49.730;10.088;2022-09-21T00:25:13;6.20;99.90
23251;DHT22;11794;49.730;10.088;2022-09-21T00:27:40;6.20;99.90
23251;DHT22;11794;49.730;10.088;2022-09-21T00:30:06;6.10;99.90
23251;DHT22;11794;49.730;10.088;2022-09-21T00:32:33;6.10;99.90
23251;DHT22;11794;49.730;10.088;2022-09-21T00:34:59;6.20;99.90
23251;DHT22;11794;49.730;10.088;2022-09-21T00:37:26;6.20;99.90
23251;DHT22;11794;49.730;10.088;2022-09-21T00:39:52;6.20;99.90
23251;DHT22;11794;49.730;10.088;2022-09-21T00:42:20;6.20;99.90
23251;DHT22;11794;49.730;10.088;2022-09-21T00:44:46;6.20;99.90
23251;DHT22;11794;49.730;10.088;2022-09-21T00:47:13;6.20;99.90
23251;DHT22;11794;49.730;10.088;2022-09-21T00:49:42;6.10;99.90
23251;DHT22;11794;49.730;10.088;2022-09-21T00:52:10;6.10;99.90
23251;DHT22;11794;49.730;10.088;2022-09-21T00:54:48;6.10;99.90
23251;DHT22;11794;49.730;10.088;2022-09-21T00:57:16;6.10;99.90
23251;DHT22;11794;49.730;10.088;2022-09-21T00:59:42;6.10;99.90
23251;DHT22;11794;49.730;10.088;2022-09-21T01:02:09;6.10;99.90
23251;DHT22;11794;49.730;10.088;2022-09-21T01:04:37;6.00;99.90
23251;DHT22;11794;49.730;10.088;2022-09-21T01:07:07;6.00;99.90
23251;DHT22;11794;49.730;10.088;2022-09-21T01:09:35;5.90;99.90
23251;DHT22;11794;49.730;10.088;2022-09-21T01:17:43;5.90;99.90
23251;DHT22;11794;49.730;10.088;2022-09-21T01:23:34;5.80;99.90
23251;DHT22;11794;49.730;10.088;2022-09-21T01:29:25;5.60;99.90
23251;DHT22;11794;49.730;10.088;2022-09-21T01:32:04;5.70;99.90
23251;DHT22;11794;49.730;10.088;2022-09-21T01:34:43;5.70;99.90
23251;DHT22;11794;49.730;10.088;2022-09-21T01:37:16;5.70;99.90
23251;DHT22;11794;49.730;10.088;2022-09-21T01:39:45;5.60;99.90
23251;DHT22;11794;49.730;10.088;2022-09-21T01:42:13;5.50;99.90
23251;DHT22;11794;49.730;10.088;2022-09-21T01:44:41;5.50;99.90
23251;DHT22;11794;49.730;10.088;2022-09-21T01:47:10;5.50;99.90
23251;DHT22;11794;49.730;10.088;2022-09-21T01:49:45;5.40;99.90
23251;DHT22;11794;49.730;10.088;2022-09-21T01:52:16;5.40;99.90
23251;DHT22;11794;49.730;10.088;2022-09-21T01:54:51;5.30;99.90
23251;DHT22;11794;49.730;10.088;2022-09-21T01:57:53;5.30;99.90
23251;DHT22;11794;49.730;10.088;2022-09-21T02:00:21;5.30;99.90
23251;DHT22;11794;49.730;10.088;2022-09-21T02:02:52;5.30;99.90
23251;DHT22;11794;49.730;10.088;2022-09-21T02:05:21;5.20;99.90
23251;DHT22;11794;49.730;10.088;2022-09-21T02:07:49;5.30;99.90
23251;DHT22;11794;49.730;10.088;2022-09-21T02:12:59;5.30;99.90
23251;DHT22;11794;49.730;10.088;2022-09-21T02:16:02;5.40;99.90
23251;DHT22;11794;49.730;10.088;2022-09-21T02:21:39;5.40;99.90
23251;DHT22;11794;49.730;10.088;2022-09-21T02:24:15;5.30;99.90
23251;DHT22;11794;49.730;10.088;2022-09-21T02:26:49;5.20;99.90
23251;DHT22;11794;49.730;10.088;2022-09-21T02:29:24;5.20;99.90
23251;DHT22;11794;49.730;10.088;2022-09-21T02:32:02;5.10;99.90
23251;DHT22;11794;49.730;10.088;2022-09-21T02:34:53;5.10;99.90
23251;DHT22;11794;49.730;10.088;2022-09-21T02:37:29;5.10;99.90
23251;DHT22;11794;49.730;10.088;2022-09-21T02:40:02;5.10;99.90
23251;DHT22;11794;49.730;10.088;2022-09-21T02:42:36;5.10;99.90
23251;DHT22;11794;49.730;10.088;2022-09-21T02:45:12;5.20;99.90
23251;DHT22;11794;49.730;10.088;2022-09-21T02:47:57;5.10;99.90
23251;DHT22;11794;49.730;10.088;2022-09-21T02:50:28;5.10;99.90
23251;DHT22;11794;49.730;10.088;2022-09-21T02:52:58;5.00;99.90
23251;DHT22;11794;49.730;10.088;2022-09-21T02:55:25;5.00;99.90
23251;DHT22;11794;49.730;10.088;2022-09-21T02:57:53;4.90;99.90
23251;DHT22;11794;49.730;10.088;2022-09-21T03:00:19;4.90;99.90
23251;DHT22;11794;49.730;10.088;2022-09-21T03:02:45;4.80;99.90
23251;DHT22;11794;49.730;10.088;2022-09-21T03:05:12;4.80;99.90
23251;DHT22;11794;49.730;10.088;2022-09-21T03:07:38;4.70;99.90
23251;DHT22;11794;49.730;10.088;2022-09-21T03:10:04;4.70;99.90
23251;DHT22;11794;49.730;10.088;2022-09-21T03:12:31;4.70;99.90
23251;DHT22;11794;49.730;10.088;2022-09-21T03:14:57;4.60;99.90
23251;DHT22;11794;49.730;10.088;2022-09-21T03:17:23;4.60;99.90
23251;DHT22;11794;49.730;10.088;2022-09-21T03:19:49;4.60;99.90
23251;DHT22;11794;49.730;10.088;2022-09-21T03:22:14;4.60;99.90
23251;DHT22;11794;49.730;10.088;2022-09-21T03:24:42;4.60;99.90
23251;DHT22;11794;49.730;10.088;2022-09-21T03:27:11;4.70;99.90
23251;DHT22;11794;49.730;10.088;2022-09-21T03:29:37;4.70;99.90
23251;DHT22;11794;49.730;10.088;2022-09-21T03:32:03;4.60;99.90
23251;DHT22;11794;49.730;10.088;2022-09-21T03:34:28;4.60;99.90
23251;DHT22;11794;49.730;10.088;2022-09-21T03:36:55;4.70;99.90
23251;DHT22;11794;49.730;10.088;2022-09-21T03:39:21;4.70;99.90
23251;DHT22;11794;49.730;10.088;2022-09-21T03:41:46;4.80;99.90
23251;DHT22;11794;49.730;10.088;2022-09-21T03:44:12;4.90;99.90
23251;DHT22;11794;49.730;10.088;2022-09-21T03:46:42;4.80;99.90
23251;DHT22;11794;49.730;10.088;2022-09-21T03:49:07;4.90;99.90
23251;DHT22;11794;49.730;10.088;2022-09-21T03:51:33;4.90;99.90
23251;DHT22;11794;49.730;10.088;2022-09-21T03:53:58;5.00;99.90
23251;DHT22;11794;49.730;10.088;2022-09-21T03:56:24;5.00;99.90
23251;DHT22;11794;49.730;10.088;2022-09-21T03:58:49;5.00;99.90
23251;DHT22;11794;49.730;10.088;2022-09-21T04:01:15;5.10;99.90
23251;DHT22;11794;49.730;10.088;2022-09-21T04:03:40;5.10;99.90
23251;DHT22;11794;49.730;10.088;2022-09-21T04:06:10;5.10;99.90
23251;DHT22;11794;49.730;10.088;2022-09-21T04:08:37;5.10;99.90
23251;DHT22;11794;49.730;10.088;2022-09-21T04:11:21;5.20;99.90
23251;DHT22;11794;49.730;10.088;2022-09-21T04:13:50;5.20;99.90
23251;DHT22;11794;49.730;10.088;2022-09-21T04:16:23;5.30;99.90
23251;DHT22;11794;49.730;10.088;2022-09-21T04:18:49;5.30;99.90
23251;DHT22;11794;49.730;10.088;2022-09-21T04:21:17;5.30;99.90
23251;DHT22;11794;49.730;10.088;2022-09-21T04:23:43;5.30;99.90
23251;DHT22;11794;49.730;10.088;2022-09-21T04:26:20;5.30;99.90
23251;DHT22;11794;49.730;10.088;2022-09-21T04:28:46;5.20;99.90
23251;DHT22;11794;49.730;10.088;2022-09-21T04:31:11;5.20;99.90
23251;DHT22;11794;49.730;10.088;2022-09-21T04:33:37;5.20;99.90
23251;DHT22;11794;49.730;10.088;2022-09-21T04:36:02;5.20;99.90
23251;DHT22;11794;49.730;10.088;2022-09-21T04:38:30;5.20;99.90
23251;DHT22;11794;49.730;10.088;2022-09-21T04:40:56;5.20;99.90
23251;DHT22;11794;49.730;10.088;2022-09-21T04:43:22;5.20;99.90
23251;DHT22;11794;49.730;10.088;2022-09-21T04:45:50;5.20;99.90
23251;DHT22;11794;49.730;10.088;2022-09-21T04:48:16;5.20;99.90
23251;DHT22;11794;49.730;10.088;2022-09-21T04:50:42;5.30;99.90
23251;DHT22;11794;49.730;10.088;2022-09-21T04:53:08;5.30;99.90
23251;DHT22;11794;49.730;10.088;2022-09-21T04:55:33;5.30;99.90
23251;DHT22;11794;49.730;10.088;2022-09-21T04:57:59;5.30;99.90
23251;DHT22;11794;49.730;10.088;2022-09-21T05:00:25;5.30;99.90
23251;DHT22;11794;49.730;10.088;2022-09-21T05:02:51;5.30;99.90
23251;DHT22;11794;49.730;10.088;2022-09-21T05:05:16;5.30;99.90
23251;DHT22;11794;49.730;10.088;2022-09-21T05:07:42;5.30;99.90
23251;DHT22;11794;49.730;10.088;2022-09-21T05:10:09;5.30;99.90
23251;DHT22;11794;49.730;10.088;2022-09-21T05:12:34;5.20;99.90
23251;DHT22;11794;49.730;10.088;2022-09-21T05:15:00;5.30;99.90
23251;DHT22;11794;49.730;10.088;2022-09-21T05:17:26;5.20;99.90
23251;DHT22;11794;49.730;10.088;2022-09-21T05:19:52;5.30;99.90
23251;DHT22;11794;49.730;10.088;2022-09-21T05:22:18;5.30;99.90
23251;DHT22;11794;49.730;10.088;2022-09-21T05:24:44;5.30;99.90
23251;DHT22;11794;49.730;10.088;2022-09-21T05:27:10;5.30;99.90
23251;DHT22;11794;49.730;10.088;2022-09-21T05:29:35;5.30;99.90
23251;DHT22;11794;49.730;10.088;2022-09-21T05:35:25;5.30;99.90
23251;DHT22;11794;49.730;10.088;2022-09-21T05:38:11;5.30;99.90
23251;DHT22;11794;49.730;10.088;2022-09-21T05:40:38;5.30;99.90
23251;DHT22;11794;49.730;10.088;2022-09-21T05:43:04;5.30;99.90
23251;DHT22;11794;49.730;10.088;2022-09-21T05:45:30;5.30;99.90
23251;DHT22;11794;49.730;10.088;2022-09-21T05:48:16;5.30;99.90
23251;DHT22;11794;49.730;10.088;2022-09-21T05:53:32;5.40;99.90
23251;DHT22;11794;49.730;10.088;2022-09-21T06:02:03;5.50;99.90
23251;DHT22;11794;49.730;10.088;2022-09-21T06:04:33;5.60;99.90
23251;DHT22;11794;49.730;10.088;2022-09-21T06:06:58;5.60;99.90
23251;DHT22;11794;49.730;10.088;2022-09-21T06:09:24;5.70;99.90
23251;DHT22;11794;49.730;10.088;2022-09-21T06:11:51;5.70;99.90
23251;DHT22;11794;49.730;10.088;2022-09-21T06:14:16;5.70;99.90
23251;DHT22;11794;49.730;10.088;2022-09-21T06:16:49;5.70;99.90
23251;DHT22;11794;49.730;10.088;2022-09-21T06:19:14;5.80;99.90
23251;DHT22;11794;49.730;10.088;2022-09-21T06:21:40;5.90;99.90
23251;DHT22;11794;49.730;10.088;2022-09-21T06:24:07;5.80;99.90
23251;DHT22;11794;49.730;10.088;2022-09-21T06:26:33;5.90;99.90
23251;DHT22;11794;49.730;10.088;2022-09-21T06:28:59;6.00;99.90
23251;DHT22;11794;49.730;10.088;2022-09-21T06:31:26;6.00;99.90
23251;DHT22;11794;49.730;10.088;2022-09-21T06:33:51;6.00;99.90
23251;DHT22;11794;49.730;10.088;2022-09-21T06:36:17;6.20;99.90
23251;DHT22;11794;49.730;10.088;2022-09-21T06:38:42;6.20;99.90
23251;DHT22;11794;49.730;10.088;2022-09-21T06:41:08;6.30;99.90
23251;DHT22;11794;49.730;10.088;2022-09-21T06:43:34;6.30;99.90
23251;DHT22;11794;49.730;10.088;2022-09-21T06:46:01;6.30;99.90
23251;DHT22;11794;49.730;10.088;2022-09-21T06:48:27;6.30;99.90
23251;DHT22;11794;49.730;10.088;2022-09-21T06:50:57;6.40;99.90
23251;DHT22;11794;49.730;10.088;2022-09-21T06:53:24;6.50;99.90
23251;DHT22;11794;49.730;10.088;2022-09-21T06:55:49;6.40;99.90
23251;DHT22;11794;49.730;10.088;2022-09-21T06:58:15;6.40;99.90
23251;DHT22;11794;49.730;10.088;2022-09-21T07:00:40;6.60;99.90
23251;DHT22;11794;49.730;10.088;2022-09-21T07:03:11;6.70;99.90
23251;DHT22;11794;49.730;10.088;2022-09-21T07:05:38;6.70;99.90
23251;DHT22;11794;49.730;10.088;2022-09-21T07:08:04;6.80;99.90
23251;DHT22;11794;49.730;10.088;2022-09-21T07:10:29;6.90;99.90
23251;DHT22;11794;49.730;10.088;2022-09-21T07:12:55;6.90;99.90
23251;DHT22;11794;49.730;10.088;2022-09-21T07:15:25;6.90;99.90
23251;DHT22;11794;49.730;10.088;2022-09-21T07:17:54;7.10;99.90
23251;DHT22;11794;49.730;10.088;2022-09-21T07:20:19;7.20;99.90
23251;DHT22;11794;49.730;10.088;2022-09-21T07:22:45;7.20;99.90
23251;DHT22;11794;49.730;10.088;2022-09-21T07:25:11;7.30;99.90
23251;DHT22;11794;49.730;10.088;2022-09-21T07:27:37;7.50;99.90
23251;DHT22;11794;49.730;10.088;2022-09-21T07:30:03;7.50;99.90
23251;DHT22;11794;49.730;10.088;2022-09-21T07:32:29;7.50;99.90
23251;DHT22;11794;49.730;10.088;2022-09-21T07:34:56;7.60;99.90
23251;DHT22;11794;49.730;10.088;2022-09-21T07:37:25;7.70;99.90
23251;DHT22;11794;49.730;10.088;2022-09-21T07:39:51;7.90;99.90
23251;DHT22;11794;49.730;10.088;2022-09-21T07:42:18;8.00;99.90
23251;DHT22;11794;49.730;10.088;2022-09-21T07:44:47;8.20;99.90
23251;DHT22;11794;49.730;10.088;2022-09-21T07:47:14;8.30;99.90
23251;DHT22;11794;49.730;10.088;2022-09-21T07:49:40;8.40;99.90
23251;DHT22;11794;49.730;10.088;2022-09-21T07:52:06;8.50;99.90
23251;DHT22;11794;49.730;10.088;2022-09-21T07:54:33;8.60;99.90
23251;DHT22;11794;49.730;10.088;2022-09-21T07:56:59;8.70;99.90
23251;DHT22;11794;49.730;10.088;2022-09-21T07:59:44;8.70;99.90
23251;DHT22;11794;49.730;10.088;2022-09-21T08:02:10;8.70;99.90
23251;DHT22;11794;49.730;10.088;2022-09-21T08:04:36;8.80;99.90
23251;DHT22;11794;49.730;10.088;2022-09-21T08:07:02;9.00;99.90
23251;DHT22;11794;49.730;10.088;2022-09-21T08:09:27;9.10;99.90
23251;DHT22;11794;49.730;10.088;2022-09-21T08:11:53;9.20;99.90
23251;DHT22;11794;49.730;10.088;2022-09-21T08:14:20;9.30;99.90
23251;DHT22;11794;49.730;10.088;2022-09-21T08:16:46;9.40;99.90
23251;DHT22;11794;49.730;10.088;2022-09-21T08:19:13;9.40;99.90
23251;DHT22;11794;49.730;10.088;2022-09-21T08:21:38;9.30;99.90
23251;DHT22;11794;49.730;10.088;2022-09-21T08:24:04;9.30;99.90
23251;DHT22;11794;49.730;10.088;2022-09-21T08:26:30;9.40;99.90
23251;DHT22;11794;49.730;10.088;2022-09-21T08:28:55;9.40;99.90
23251;DHT22;11794;49.730;10.088;2022-09-21T08:31:23;9.50;99.90
23251;DHT22;11794;49.730;10.088;2022-09-21T08:33:50;9.60;99.90
23251;DHT22;11794;49.730;10.088;2022-09-21T08:36:17;9.50;99.90
23251;DHT22;11794;49.730;10.088;2022-09-21T08:38:42;9.50;99.90
23251;DHT22;11794;49.730;10.088;2022-09-21T08:44:10;9.40;99.90
23251;DHT22;11794;49.730;10.088;2022-09-21T08:46:38;9.50;99.90
23251;DHT22;11794;49.730;10.088;2022-09-21T08:49:24;9.50;99.90
23251;DHT22;11794;49.730;10.088;2022-09-21T08:51:58;9.70;99.90
23251;DHT22;11794;49.730;10.088;2022-09-21T08:57:00;9.80;99.90
23251;DHT22;11794;49.730;10.088;2022-09-21T08:59:25;9.80;99.90
23251;DHT22;11794;49.730;10.088;2022-09-21T09:04:56;9.90;99.90
23251;DHT22;11794;49.730;10.088;2022-09-21T09:10:41;10.40;99.90
23251;DHT22;11794;49.730;10.088;2022-09-21T09:13:24;10.70;99.90
23251;DHT22;11794;49.730;10.088;2022-09-21T09:18:58;10.80;99.90
23251;DHT22;11794;49.730;10.088;2022-09-21T09:21:31;10.90;99.90
23251;DHT22;11794;49.730;10.088;2022-09-21T09:24:05;11.20;99.90
23251;DHT22;11794;49.730;10.088;2022-09-21T09:26:43;11.40;99.90
23251;DHT22;11794;49.730;10.088;2022-09-21T09:29:56;11.50;99.90
23251;DHT22;11794;49.730;10.088;2022-09-21T09:32:02;11.50;99.90
23251;DHT22;11794;49.730;10.088;2022-09-21T09:34:32;11.40;99.90
23251;DHT22;11794;49.730;10.088;2022-09-21T09:37:09;11.30;99.90
23251;DHT22;11794;49.730;10.088;2022-09-21T09:39:35;11.40;99.90
23251;DHT22;11794;49.730;10.088;2022-09-21T09:45:19;12.30;99.90
23251;DHT22;11794;49.730;10.088;2022-09-21T09:48:01;13.90;99.90
23251;DHT22;11794;49.730;10.088;2022-09-21T09:50:32;15.10;99.90
23251;DHT22;11794;49.730;10.088;2022-09-21T09:55:38;15.20;99.90
23251;DHT22;11794;49.730;10.088;2022-09-21T09:58:11;16.00;99.90
23251;DHT22;11794;49.730;10.088;2022-09-21T10:00:40;16.90;99.90
23251;DHT22;11794;49.730;10.088;2022-09-21T10:03:15;17.60;99.90
23251;DHT22;11794;49.730;10.088;2022-09-21T10:05:41;18.10;99.90
23251;DHT22;11794;49.730;10.088;2022-09-21T10:08:39;18.60;99.90
23251;DHT22;11794;49.730;10.088;2022-09-21T10:11:06;19.10;99.90
23251;DHT22;11794;49.730;10.088;2022-09-21T10:13:34;19.70;99.90
23251;DHT22;11794;49.730;10.088;2022-09-21T10:16:05;20.20;99.90
23251;DHT22;11794;49.730;10.088;2022-09-21T10:21:22;20.30;99.90
23251;DHT22;11794;49.730;10.088;2022-09-21T10:23:56;20.30;99.90
23251;DHT22;11794;49.730;10.088;2022-09-21T10:26:22;20.30;99.90
23251;DHT22;11794;49.730;10.088;2022-09-21T10:29:00;20.30;99.90
23251;DHT22;11794;49.730;10.088;2022-09-21T10:31:29;20.60;99.90
23251;DHT22;11794;49.730;10.088;2022-09-21T10:34:14;20.70;99.90
23251;DHT22;11794;49.730;10.088;2022-09-21T10:36:41;20.60;99.90
23251;DHT22;11794;49.730;10.088;2022-09-21T10:42:06;20.50;99.90
23251;DHT22;11794;49.730;10.088;2022-09-21T10:44:47;20.50;99.90
23251;DHT22;11794;49.730;10.088;2022-09-21T10:53:09;20.80;99.90
23251;DHT22;11794;49.730;10.088;2022-09-21T10:55:52;20.70;99.90
23251;DHT22;11794;49.730;10.088;2022-09-21T10:58:18;21.00;99.90
23251;DHT22;11794;49.730;10.088;2022-09-21T11:00:48;21.10;99.90
23251;DHT22;11794;49.730;10.088;2022-09-21T11:06:14;21.40;99.90
23251;DHT22;11794;49.730;10.088;2022-09-21T11:08:45;22.20;99.90
23251;DHT22;11794;49.730;10.088;2022-09-21T11:11:41;22.20;99.90
23251;DHT22;11794;49.730;10.088;2022-09-21T11:14:32;22.20;99.90
23251;DHT22;11794;49.730;10.088;2022-09-21T11:19:55;22.50;99.20
23251;DHT22;11794;49.730;10.088;2022-09-21T11:22:34;22.60;99.90
23251;DHT22;11794;49.730;10.088;2022-09-21T11:27:53;22.50;99.90
23251;DHT22;11794;49.730;10.088;2022-09-21T11:30:29;22.70;99.90
23251;DHT22;11794;49.730;10.088;2022-09-21T11:35:51;23.20;98.40
23251;DHT22;11794;49.730;10.088;2022-09-21T11:38:31;23.20;98.90
23251;DHT22;11794;49.730;10.088;2022-09-21T11:46:40;23.80;98.90
23251;DHT22;11794;49.730;10.088;2022-09-21T12:00:09;25.00;94.80
23251;DHT22;11794;49.730;10.088;2022-09-21T12:11:57;25.60;91.70
23251;DHT22;11794;49.730;10.088;2022-09-21T12:14:36;24.90;93.90
23251;DHT22;11794;49.730;10.088;2022-09-21T12:20:16;24.00;94.40
23251;DHT22;11794;49.730;10.088;2022-09-21T12:22:46;24.90;93.50
23251;DHT22;11794;49.730;10.088;2022-09-21T12:25:16;25.40;92.60
23251;DHT22;11794;49.730;10.088;2022-09-21T12:28:17;25.70;91.80
23251;DHT22;11794;49.730;10.088;2022-09-21T12:30:47;26.60;91.90
23251;DHT22;11794;49.730;10.088;2022-09-21T12:33:40;27.50;90.40
23251;DHT22;11794;49.730;10.088;2022-09-21T12:36:23;27.80;88.70
23251;DHT22;11794;49.730;10.088;2022-09-21T12:42:01;24.90;90.40
23251;DHT22;11794;49.730;10.088;2022-09-21T12:44:42;24.40;91.70
23251;DHT22;11794;49.730;10.088;2022-09-21T12:47:51;23.30;94.00
23251;DHT22;11794;49.730;10.088;2022-09-21T12:50:26;24.10;91.50
23251;DHT22;11794;49.730;10.088;2022-09-21T12:52:55;23.20;91.00
23251;DHT22;11794;49.730;10.088;2022-09-21T12:58:00;23.20;93.30
23251;DHT22;11794;49.730;10.088;2022-09-21T13:00:36;24.30;91.10
23251;DHT22;11794;49.730;10.088;2022-09-21T13:08:37;28.50;86.00
23251;DHT22;11794;49.730;10.088;2022-09-21T13:11:05;29.60;81.00
23251;DHT22;11794;49.730;10.088;2022-09-21T13:13:36;30.20;76.20
23251;DHT22;11794;49.730;10.088;2022-09-21T13:16:04;29.80;77.10
23251;DHT22;11794;49.730;10.088;2022-09-21T13:18:35;30.20;73.70
23251;DHT22;11794;49.730;10.088;2022-09-21T13:21:17;30.30;68.00
23251;DHT22;11794;49.730;10.088;2022-09-21T13:23:50;29.40;67.30
23251;DHT22;11794;49.730;10.088;2022-09-21T13:26:29;29.70;68.20
23251;DHT22;11794;49.730;10.088;2022-09-21T13:29:05;29.50;69.50
23251;DHT22;11794;49.730;10.088;2022-09-21T13:34:38;28.80;66.80
23251;DHT22;11794;49.730;10.088;2022-09-21T13:47:44;30.00;70.30
23251;DHT22;11794;49.730;10.088;2022-09-21T13:52:42;28.50;71.90
23251;DHT22;11794;49.730;10.088;2022-09-21T13:55:37;26.70;74.90
23251;DHT22;11794;49.730;10.088;2022-09-21T13:58:20;24.50;79.40
23251;DHT22;11794;49.730;10.088;2022-09-21T14:00:53;22.20;83.40
23251;DHT22;11794;49.730;10.088;2022-09-21T14:03:36;20.40;87.90
23251;DHT22;11794;49.730;10.088;2022-09-21T14:06:20;19.20;90.00
23251;DHT22;11794;49.730;10.088;2022-09-21T14:08:51;18.70;91.60
23251;DHT22;11794;49.730;10.088;2022-09-21T14:24:40;29.60;66.60
23251;DHT22;11794;49.730;10.088;2022-09-21T14:27:43;29.70;67.30
23251;DHT22;11794;49.730;10.088;2022-09-21T14:30:22;30.00;65.30
23251;DHT22;11794;49.730;10.088;2022-09-21T14:35:36;30.60;60.90
23251;DHT22;11794;49.730;10.088;2022-09-21T14:38:22;29.80;63.80
23251;DHT22;11794;49.730;10.088;2022-09-21T14:40:51;29.50;60.40
23251;DHT22;11794;49.730;10.088;2022-09-21T14:43:24;28.10;63.10
23251;DHT22;11794;49.730;10.088;2022-09-21T14:56:50;22.90;74.80
23251;DHT22;11794;49.730;10.088;2022-09-21T15:02:20;20.90;75.60
23251;DHT22;11794;49.730;10.088;2022-09-21T15:04:59;20.20;81.90
23251;DHT22;11794;49.730;10.088;2022-09-21T15:07:47;19.50;83.60
23251;DHT22;11794;49.730;10.088;2022-09-21T15:16:38;17.90;89.70
23251;DHT22;11794;49.730;10.088;2022-09-21T15:21:53;17.90;90.20
23251;DHT22;11794;49.730;10.088;2022-09-21T15:29:31;18.20;88.00
23251;DHT22;11794;49.730;10.088;2022-09-21T15:31:59;17.90;86.90
23251;DHT22;11794;49.730;10.088;2022-09-21T15:34:24;17.80;89.00
23251;DHT22;11794;49.730;10.088;2022-09-21T15:36:51;17.60;88.70
23251;DHT22;11794;49.730;10.088;2022-09-21T15:39:28;17.50;87.70
23251;DHT22;11794;49.730;10.088;2022-09-21T15:44:34;17.20;86.70
23251;DHT22;11794;49.730;10.088;2022-09-21T15:47:03;17.20;89.40
23251;DHT22;11794;49.730;10.088;2022-09-21T15:49:33;17.00;89.60
23251;DHT22;11794;49.730;10.088;2022-09-21T15:52:12;16.90;89.80
23251;DHT22;11794;49.730;10.088;2022-09-21T15:54:45;16.80;90.10
23251;DHT22;11794;49.730;10.088;2022-09-21T15:57:29;16.70;90.10
23251;DHT22;11794;49.730;10.088;2022-09-21T15:59:58;16.50;90.30
23251;DHT22;11794;49.730;10.088;2022-09-21T16:02:25;16.60;90.90
23251;DHT22;11794;49.730;10.088;2022-09-21T16:04:52;16.70;90.40
23251;DHT22;11794;49.730;10.088;2022-09-21T16:09:52;16.60;90.70
23251;DHT22;11794;49.730;10.088;2022-09-21T16:12:42;16.50;90.20
23251;DHT22;11794;49.730;10.088;2022-09-21T16:15:15;16.40;90.30
23251;DHT22;11794;49.730;10.088;2022-09-21T16:18:02;16.50;90.20
23251;DHT22;11794;49.730;10.088;2022-09-21T16:20:42;16.50;91.00
23251;DHT22;11794;49.730;10.088;2022-09-21T16:23:16;16.30;90.80
23251;DHT22;11794;49.730;10.088;2022-09-21T16:25:43;16.30;90.90
23251;DHT22;11794;49.730;10.088;2022-09-21T16:30:52;16.30;91.80
23251;DHT22;11794;49.730;10.088;2022-09-21T16:33:56;16.20;91.70
23251;DHT22;11794;49.730;10.088;2022-09-21T16:38:51;16.10;92.50
23251;DHT22;11794;49.730;10.088;2022-09-21T16:41:33;16.00;92.50
23251;DHT22;11794;49.730;10.088;2022-09-21T16:43:59;15.90;93.30
23251;DHT22;11794;49.730;10.088;2022-09-21T16:46:25;15.90;93.20
23251;DHT22;11794;49.730;10.088;2022-09-21T16:48:52;15.80;93.50
23251;DHT22;11794;49.730;10.088;2022-09-21T16:51:20;15.70;93.50
23251;DHT22;11794;49.730;10.088;2022-09-21T16:53:49;15.50;93.70
23251;DHT22;11794;49.730;10.088;2022-09-21T16:56:15;15.40;94.30
23251;DHT22;11794;49.730;10.088;2022-09-21T16:58:42;15.30;94.70
23251;DHT22;11794;49.730;10.088;2022-09-21T17:01:12;15.20;95.10
23251;DHT22;11794;49.730;10.088;2022-09-21T17:03:40;15.10;95.60
23251;DHT22;11794;49.730;10.088;2022-09-21T17:06:16;15.00;95.70
23251;DHT22;11794;49.730;10.088;2022-09-21T17:08:43;14.90;96.00
23251;DHT22;11794;49.730;10.088;2022-09-21T17:11:10;14.80;96.20
23251;DHT22;11794;49.730;10.088;2022-09-21T17:13:35;14.70;96.80
23251;DHT22;11794;49.730;10.088;2022-09-21T17:16:02;14.50;97.60
23251;DHT22;11794;49.730;10.088;2022-09-21T17:18:28;14.40;99.20
23251;DHT22;11794;49.730;10.088;2022-09-21T17:20:53;14.30;99.60
23251;DHT22;11794;49.730;10.088;2022-09-21T17:23:19;14.10;99.90
23251;DHT22;11794;49.730;10.088;2022-09-21T17:25:44;13.90;99.90
23251;DHT22;11794;49.730;10.088;2022-09-21T17:28:22;13.80;99.90
23251;DHT22;11794;49.730;10.088;2022-09-21T17:30:51;13.70;99.90
23251;DHT22;11794;49.730;10.088;2022-09-21T17:33:16;13.60;99.90
23251;DHT22;11794;49.730;10.088;2022-09-21T17:35:44;13.50;99.90
23251;DHT22;11794;49.730;10.088;2022-09-21T17:38:09;13.30;99.90
23251;DHT22;11794;49.730;10.088;2022-09-21T17:40:36;13.20;99.90
23251;DHT22;11794;49.730;10.088;2022-09-21T17:45:48;13.10;99.90
23251;DHT22;11794;49.730;10.088;2022-09-21T17:48:20;13.00;99.90
23251;DHT22;11794;49.730;10.088;2022-09-21T17:50:47;12.90;99.90
23251;DHT22;11794;49.730;10.088;2022-09-21T17:53:13;12.70;99.90
23251;DHT22;11794;49.730;10.088;2022-09-21T17:55:58;12.50;99.90
23251;DHT22;11794;49.730;10.088;2022-09-21T18:01:19;12.20;99.90
23251;DHT22;11794;49.730;10.088;2022-09-21T18:03:46;12.00;99.90
23251;DHT22;11794;49.730;10.088;2022-09-21T18:06:13;11.90;99.90
23251;DHT22;11794;49.730;10.088;2022-09-21T18:08:39;11.90;99.90
23251;DHT22;11794;49.730;10.088;2022-09-21T18:16:51;11.50;99.90
23251;DHT22;11794;49.730;10.088;2022-09-21T18:19:23;11.40;99.90
23251;DHT22;11794;49.730;10.088;2022-09-21T18:22:05;11.40;99.90
23251;DHT22;11794;49.730;10.088;2022-09-21T18:24:35;11.20;99.90
23251;DHT22;11794;49.730;10.088;2022-09-21T18:27:01;11.10;99.90
23251;DHT22;11794;49.730;10.088;2022-09-21T18:29:30;11.10;99.90
23251;DHT22;11794;49.730;10.088;2022-09-21T18:32:27;11.00;99.90
23251;DHT22;11794;49.730;10.088;2022-09-21T18:35:26;10.90;99.90
23251;DHT22;11794;49.730;10.088;2022-09-21T18:43:26;10.70;99.90
23251;DHT22;11794;49.730;10.088;2022-09-21T18:46:05;10.60;99.90
23251;DHT22;11794;49.730;10.088;2022-09-21T18:53:48;10.40;99.90
23251;DHT22;11794;49.730;10.088;2022-09-21T18:56:14;10.30;99.90
23251;DHT22;11794;49.730;10.088;2022-09-21T18:58:41;10.20;99.90
23251;DHT22;11794;49.730;10.088;2022-09-21T19:01:11;10.10;99.90
23251;DHT22;11794;49.730;10.088;2022-09-21T19:03:37;10.10;99.90
23251;DHT22;11794;49.730;10.088;2022-09-21T19:08:53;10.00;99.90
23251;DHT22;11794;49.730;10.088;2022-09-21T19:16:41;9.80;99.90
23251;DHT22;11794;49.730;10.088;2022-09-21T19:19:19;9.70;99.90
23251;DHT22;11794;49.730;10.088;2022-09-21T19:24:28;9.60;99.90